createdAt,value
2023-04-18T00:09:18.331Z,33.13
2023-04-18T00:19:21.716Z,34.67
2023-04-18T00:29:23.678Z,29.95
2023-04-18T00:39:26.992Z,33.22
2023-04-18T00:49:29.030Z,31.65
2023-04-18T00:59:34.148Z,29.30
2023-04-18T01:09:37.019Z,34.65
2023-04-18T01:19:40.668Z,33.42
2023-04-18T01:29:44.021Z,33.35
2023-04-18T01:39:45.926Z,30.65
2023-04-18T01:49:49.287Z,28.63
2023-04-18T01:59:51.256Z,31.85
2023-04-18T02:09:54.599Z,32.70
2023-04-18T02:19:56.565Z,32.80
2023-04-18T02:29:59.908Z,31.50
2023-04-18T02:40:01.903Z,29.95
2023-04-18T02:50:06.307Z,34.00
2023-04-18T03:00:09.114Z,32.83
2023-04-18T03:10:12.580Z,35.00
2023-04-18T03:20:14.570Z,32.50
2023-04-18T03:30:18.097Z,32.10
2023-04-18T03:40:20.114Z,27.65
2023-04-18T03:50:23.438Z,30.17
2023-04-18T04:00:25.429Z,26.90
2023-04-18T04:10:28.735Z,30.90
2023-04-18T04:20:30.667Z,24.50
2023-04-18T04:30:34.130Z,35.58
2023-04-18T04:40:36.053Z,30.20
2023-04-18T04:50:41.580Z,27.08
2023-04-18T05:00:43.525Z,28.10
2023-04-18T05:10:46.796Z,27.30
2023-04-18T05:20:48.743Z,31.98
2023-04-18T05:30:52.169Z,33.40
2023-04-18T05:40:54.155Z,39.00
2023-04-18T05:50:57.428Z,32.65
2023-04-18T06:00:59.394Z,39.65
2023-04-18T06:11:03.146Z,34.60
2023-04-18T06:21:05.500Z,30.58
2023-04-18T06:31:08.821Z,32.33
2023-04-18T06:41:11.020Z,32.85
2023-04-18T06:51:14.388Z,37.45
2023-04-18T07:01:16.327Z,30.90
2023-04-18T07:11:19.637Z,34.95
2023-04-18T07:21:21.582Z,35.13
2023-04-18T07:31:24.964Z,33.67
2023-04-18T07:41:27.169Z,43.22
2023-04-18T07:51:30.565Z,31.83
2023-04-18T08:01:32.662Z,28.67
2023-04-18T08:11:36.013Z,29.95
2023-04-18T08:21:37.950Z,23.33
2023-04-18T08:31:41.257Z,25.90
2023-04-18T08:41:45.123Z,21.58
2023-04-18T08:51:50.737Z,17.20
2023-04-18T09:01:54.725Z,22.27
2023-04-18T09:12:08.660Z,19.15
2023-04-18T09:22:10.701Z,16.40
2023-04-18T09:32:21.184Z,15.20
2023-04-18T09:42:23.260Z,13.43
2023-04-18T09:52:29.485Z,20.85
2023-04-18T10:02:39.937Z,21.50
2023-04-18T10:12:44.563Z,19.50
2023-04-18T10:22:47.646Z,13.77
2023-04-18T10:32:55.641Z,15.10
2023-04-18T10:43:00.664Z,24.17
2023-04-18T10:53:04.005Z,12.35
2023-04-18T11:03:06.408Z,11.77
2023-04-18T11:13:09.876Z,11.35
2023-04-18T11:23:17.266Z,15.15
2023-04-18T11:33:20.627Z,20.08
2023-04-18T11:43:23.881Z,21.13
2023-04-18T11:53:33.996Z,16.40
2023-04-18T12:13:39.729Z,12.30
2023-04-18T12:23:42.859Z,16.58
2023-04-18T12:33:46.192Z,17.83
2023-04-18T12:43:48.229Z,20.02
2023-04-18T12:53:51.582Z,15.40
2023-04-18T13:04:04.020Z,12.82
2023-04-18T13:14:14.776Z,27.07
2023-04-18T13:24:16.848Z,16.48
2023-04-18T13:34:20.147Z,13.07
2023-04-18T13:44:22.057Z,9.90
2023-04-18T13:54:25.526Z,18.45
2023-04-18T14:04:27.789Z,14.07
2023-04-18T14:14:31.285Z,15.57
2023-04-18T14:24:34.661Z,18.95
2023-04-18T14:34:38.836Z,12.40
2023-04-18T14:44:41.224Z,14.43
2023-04-18T14:54:44.720Z,14.20
2023-04-18T15:04:46.972Z,22.52
2023-04-18T15:14:50.316Z,14.15
2023-04-18T15:24:52.256Z,13.75
2023-04-18T15:34:55.548Z,19.55
2023-04-18T15:44:57.487Z,15.73
2023-04-18T15:55:00.836Z,18.20
2023-04-18T16:05:02.745Z,25.83
2023-04-18T16:15:08.663Z,26.73
2023-04-18T16:25:10.957Z,28.27
2023-04-18T16:35:14.289Z,30.38
2023-04-18T16:45:16.283Z,26.35
2023-04-18T16:55:19.656Z,20.17
2023-04-18T17:05:21.630Z,20.90
2023-04-18T17:15:26.358Z,20.77
2023-04-18T17:25:28.390Z,31.30
2023-04-18T17:35:31.840Z,22.25
2023-04-18T17:45:33.735Z,25.98
2023-04-18T17:55:37.037Z,22.88
2023-04-18T18:05:39.115Z,20.77
2023-04-18T18:15:42.454Z,22.30
2023-04-18T18:25:44.487Z,26.50
2023-04-18T18:35:47.855Z,21.58
2023-04-18T18:45:49.841Z,20.63
2023-04-18T18:55:53.233Z,28.05
2023-04-18T19:05:55.193Z,29.98
2023-04-18T19:15:58.586Z,26.23
2023-04-18T19:26:00.733Z,21.83
2023-04-18T19:36:04.560Z,28.35
2023-04-18T19:46:06.668Z,31.33
2023-04-18T19:56:10.044Z,27.58
2023-04-18T20:06:12.161Z,28.40
2023-04-18T20:16:15.505Z,28.02
2023-04-18T20:26:17.429Z,27.33
2023-04-18T20:36:20.812Z,27.60
2023-04-18T20:46:22.758Z,30.83
2023-04-18T20:56:27.377Z,28.83
2023-04-18T21:06:29.312Z,30.83
2023-04-18T21:16:35.828Z,30.38
2023-04-18T21:26:37.987Z,37.78
2023-04-18T21:36:41.301Z,25.23
2023-04-18T21:46:43.245Z,34.15
2023-04-18T21:56:46.571Z,28.08
2023-04-18T22:06:48.511Z,24.58
2023-04-18T22:16:51.974Z,32.22
2023-04-18T22:26:54.116Z,27.05
2023-04-18T22:36:57.440Z,31.48
2023-04-18T22:46:59.366Z,35.63
2023-04-18T22:57:02.662Z,26.80
2023-04-18T23:07:04.573Z,30.83
2023-04-18T23:17:07.989Z,31.80
2023-04-18T23:27:09.891Z,36.00
2023-04-18T23:37:13.307Z,32.78
2023-04-18T23:47:15.298Z,35.53
2023-04-18T23:57:18.613Z,28.42
